Eudora, Kansas
Current Conditions -  °F | °C
As of 12:52 AM on Friday 28 Nov 2014 (Local Time) from KLWC Reporting Station
Clear Clear  
Wind Chill: 19°   Ceiling: Unl
Heat Index: 28°   Visibility: 8mi
Dew Point: 22°   Wind: 10mph
Humidity: 78%   Direction: 120°ESE
Pressure: 30.2"   Gusts: NA
Location:  38.94°N, 95.1°W
Report Text: KLWC 280652Z AUTO 12009KT 8SM CLR M02/M06 A3020 RMK AO2 SLP233 T10221056
Loading
Personal Weather Stations






























Interactive Weather Map New forecast layout! Learn more

10-Day Weather Forecast

Advertisements
Track Severe Weather on mobile